createdAt,value
2017-06-13T00:09:38.000Z,21.9
2017-06-13T00:26:27.000Z,21.6
2017-06-13T00:43:15.000Z,21.6
2017-06-13T01:00:03.000Z,21.6
2017-06-13T01:16:52.000Z,21.6
2017-06-13T01:33:40.000Z,21.6
2017-06-13T01:50:28.000Z,21.6
2017-06-13T02:07:17.000Z,21.3
2017-06-13T02:24:05.000Z,21.3
2017-06-13T02:40:53.000Z,21.3
2017-06-13T02:57:41.000Z,21.3
2017-06-13T03:14:30.000Z,21.3
2017-06-13T03:31:17.000Z,21.3
2017-06-13T03:48:05.000Z,21.3
2017-06-13T04:04:53.000Z,21.3
2017-06-13T04:21:41.000Z,21.3
2017-06-13T04:38:30.000Z,21.3
2017-06-13T04:55:18.000Z,21.6
2017-06-13T05:12:06.000Z,21.9
2017-06-13T05:28:56.000Z,22.6
2017-06-13T05:44:04.000Z,23.2
2017-06-13T06:00:55.000Z,23.5
2017-06-13T06:17:46.000Z,23.5
2017-06-13T06:34:36.000Z,23.5
2017-06-13T06:51:27.000Z,23.5
2017-06-13T07:08:18.000Z,23.5
2017-06-13T07:25:09.000Z,23.5
2017-06-13T07:42:00.000Z,23.2
2017-06-13T07:58:50.000Z,23.2
2017-06-13T08:15:40.000Z,22.9
2017-06-13T08:32:31.000Z,23.2
2017-06-13T08:49:21.000Z,23.2
2017-06-13T09:06:11.000Z,23.2
2017-06-13T09:23:02.000Z,23.2
2017-06-13T09:39:52.000Z,23.2
2017-06-13T09:56:42.000Z,23.2
2017-06-13T10:13:33.000Z,23.5
2017-06-13T10:30:23.000Z,23.5
2017-06-13T10:47:13.000Z,23.2
2017-06-13T11:04:04.000Z,23.2
2017-06-13T11:20:55.000Z,23.2
2017-06-13T11:37:45.000Z,23.2
2017-06-13T11:54:36.000Z,23.2
2017-06-13T12:11:26.000Z,23.5
2017-06-13T12:28:17.000Z,23.5
2017-06-13T12:45:08.000Z,23.5
2017-06-13T13:01:58.000Z,23.5
2017-06-13T13:18:49.000Z,23.2
2017-06-13T13:35:40.000Z,23.2
2017-06-13T13:52:30.000Z,23.2
2017-06-13T14:09:21.000Z,23.2
2017-06-13T14:26:11.000Z,22.9
2017-06-13T14:43:01.000Z,22.9
2017-06-13T14:59:51.000Z,22.9
2017-06-13T15:16:41.000Z,22.9
2017-06-13T15:33:31.000Z,22.9
2017-06-13T15:50:21.000Z,22.9
2017-06-13T16:07:11.000Z,22.9
2017-06-13T16:24:02.000Z,22.9
2017-06-13T16:40:52.000Z,22.9
2017-06-13T16:57:42.000Z,22.9
2017-06-13T17:14:31.000Z,22.9
2017-06-13T17:31:21.000Z,22.9
2017-06-13T17:48:12.000Z,22.9
2017-06-13T18:05:02.000Z,22.9
2017-06-13T18:38:42.000Z,22.9
2017-06-13T18:55:32.000Z,22.6
2017-06-13T19:12:22.000Z,22.6
2017-06-13T19:29:12.000Z,22.6
2017-06-13T19:46:02.000Z,22.6
2017-06-13T20:02:52.000Z,22.2
2017-06-13T20:19:41.000Z,22.2
2017-06-13T20:36:31.000Z,22.2
2017-06-13T20:53:21.000Z,21.9
2017-06-13T21:10:10.000Z,21.9
2017-06-13T21:26:59.000Z,21.9
2017-06-13T21:43:49.000Z,21.9
2017-06-13T22:00:38.000Z,21.6
2017-06-13T22:17:26.000Z,21.9
2017-06-13T22:34:15.000Z,21.6
2017-06-13T22:51:03.000Z,21.6
2017-06-13T23:07:50.000Z,21.3
2017-06-13T23:24:39.000Z,21.3
2017-06-13T23:41:26.000Z,21.3
2017-06-13T23:58:14.000Z,21.3
